createdAt,value
2022-09-27T00:00:43.719Z,5.47
2022-09-27T00:03:11.587Z,5.43
2022-09-27T00:05:39.409Z,5.42
2022-09-27T00:08:07.014Z,5.44
2022-09-27T00:10:34.347Z,5.47
2022-09-27T00:13:01.940Z,5.60
2022-09-27T00:15:29.163Z,5.67
2022-09-27T00:17:57.956Z,5.70
2022-09-27T00:20:26.370Z,5.70
2022-09-27T00:22:53.612Z,5.67
2022-09-27T00:25:20.973Z,5.63
2022-09-27T00:27:48.349Z,5.51
2022-09-27T00:30:15.729Z,5.45
2022-09-27T00:32:42.906Z,5.55
2022-09-27T00:35:11.623Z,5.59
2022-09-27T00:37:38.975Z,5.59
2022-09-27T00:40:07.162Z,5.60
2022-09-27T00:42:34.673Z,5.57
2022-09-27T00:45:12.916Z,5.57
2022-09-27T00:47:46.962Z,5.59
2022-09-27T00:50:23.816Z,5.49
2022-09-27T00:53:00.128Z,5.37
2022-09-27T00:55:31.876Z,5.28
2022-09-27T00:57:59.987Z,5.21
2022-09-27T01:00:27.440Z,5.16
2022-09-27T01:02:56.701Z,5.14
2022-09-27T01:05:28.733Z,5.17
2022-09-27T01:08:01.086Z,5.20
2022-09-27T01:10:36.901Z,5.27
2022-09-27T01:13:12.428Z,5.29
2022-09-27T01:15:46.792Z,5.22
2022-09-27T01:18:29.481Z,5.16
2022-09-27T01:21:25.841Z,5.11
2022-09-27T01:24:08.618Z,4.90
2022-09-27T01:27:19.822Z,4.89
2022-09-27T01:30:15.981Z,4.68
2022-09-27T01:32:59.491Z,4.59
2022-09-27T01:35:34.663Z,4.64
2022-09-27T01:38:12.736Z,4.73
2022-09-27T01:40:45.878Z,4.77
2022-09-27T01:43:54.631Z,4.81
2022-09-27T01:46:30.400Z,4.68
2022-09-27T01:49:28.163Z,4.82
2022-09-27T01:52:00.562Z,4.81
2022-09-27T01:54:37.397Z,4.78
2022-09-27T01:57:35.679Z,4.67
2022-09-27T02:00:08.391Z,4.43
2022-09-27T02:02:48.257Z,4.44
2022-09-27T02:05:43.214Z,4.42
2022-09-27T02:08:31.997Z,4.38
2022-09-27T02:11:10.042Z,4.37
2022-09-27T02:13:47.972Z,4.42
2022-09-27T02:16:46.208Z,4.52
2022-09-27T02:19:18.793Z,4.59
2022-09-27T02:22:00.152Z,4.43
2022-09-27T02:24:36.213Z,4.46
2022-09-27T02:27:12.506Z,4.37
2022-09-27T02:29:50.893Z,4.25
2022-09-27T02:32:18.337Z,4.20
2022-09-27T02:34:47.321Z,4.13
2022-09-27T02:37:16.200Z,4.08
2022-09-27T02:39:44.124Z,3.99
2022-09-27T02:42:11.540Z,3.97
2022-09-27T02:44:41.134Z,3.94
2022-09-27T02:47:28.971Z,3.77
2022-09-27T02:50:26.686Z,3.85
2022-09-27T02:53:22.777Z,3.89
2022-09-27T02:56:02.048Z,3.92
2022-09-27T02:58:58.395Z,3.90
2022-09-27T03:01:48.194Z,3.90
2022-09-27T03:04:39.455Z,3.84
2022-09-27T03:07:07.661Z,3.90
2022-09-27T03:09:44.725Z,3.88
2022-09-27T03:12:12.156Z,3.97
2022-09-27T03:14:39.371Z,4.10
2022-09-27T03:17:27.317Z,4.11
2022-09-27T03:20:16.246Z,4.08
2022-09-27T03:22:49.445Z,4.05
2022-09-27T03:25:21.518Z,4.02
2022-09-27T03:27:49.169Z,3.99
2022-09-27T03:30:16.596Z,4.00
2022-09-27T03:32:44.673Z,4.02
2022-09-27T03:35:32.796Z,3.94
2022-09-27T03:38:00.284Z,3.80
2022-09-27T03:40:29.377Z,3.74
2022-09-27T03:42:56.752Z,3.66
2022-09-27T03:45:24.377Z,3.61
2022-09-27T03:47:52.026Z,3.58
2022-09-27T03:50:20.017Z,3.55
2022-09-27T03:52:47.618Z,3.52
2022-09-27T03:55:15.186Z,3.48
2022-09-27T03:57:46.974Z,3.43
2022-09-27T04:00:18.061Z,3.45
2022-09-27T04:02:45.940Z,3.50
2022-09-27T04:05:25.761Z,3.55
2022-09-27T04:07:57.388Z,3.58
2022-09-27T04:10:25.012Z,3.58
2022-09-27T04:12:54.035Z,3.62
2022-09-27T04:15:23.680Z,3.63
2022-09-27T04:17:51.532Z,3.69
2022-09-27T04:20:34.086Z,3.85
2022-09-27T04:23:05.703Z,3.98
2022-09-27T04:25:33.736Z,4.05
2022-09-27T04:28:08.959Z,4.15
2022-09-27T04:30:36.552Z,4.14
2022-09-27T04:33:09.744Z,4.33
2022-09-27T04:36:13.883Z,4.47
2022-09-27T04:38:50.195Z,4.62
2022-09-27T04:41:24.225Z,4.77
2022-09-27T04:43:58.261Z,4.90
2022-09-27T04:46:31.705Z,4.99
2022-09-27T04:48:59.845Z,5.11
2022-09-27T04:51:28.549Z,5.24
2022-09-27T04:53:56.883Z,5.35
2022-09-27T04:56:27.691Z,5.39
2022-09-27T04:58:56.510Z,5.49
2022-09-27T05:01:23.996Z,5.63
2022-09-27T05:04:09.872Z,5.80
2022-09-27T05:06:40.220Z,5.98
2022-09-27T05:09:19.071Z,6.17
2022-09-27T05:11:57.133Z,6.47
2022-09-27T05:14:41.920Z,6.86
2022-09-27T05:17:45.673Z,7.38
2022-09-27T05:20:31.399Z,7.72
2022-09-27T05:23:09.963Z,8.05
2022-09-27T05:25:37.807Z,8.30
2022-09-27T05:28:05.611Z,8.51
2022-09-27T05:30:34.468Z,8.69
2022-09-27T05:33:08.722Z,8.80
2022-09-27T05:35:52.989Z,8.82
2022-09-27T05:38:21.976Z,8.91
2022-09-27T05:40:51.715Z,8.99
2022-09-27T05:43:20.158Z,9.06
2022-09-27T05:45:48.936Z,9.12
2022-09-27T05:48:19.341Z,9.03
2022-09-27T05:50:56.057Z,9.05
2022-09-27T05:53:23.518Z,9.05
2022-09-27T05:55:51.751Z,9.07
2022-09-27T05:58:23.247Z,9.14
2022-09-27T06:01:00.044Z,9.22
2022-09-27T06:03:56.967Z,9.30
2022-09-27T06:06:50.516Z,9.34
2022-09-27T06:09:18.113Z,9.40
2022-09-27T06:11:47.343Z,9.56
2022-09-27T06:14:16.713Z,9.59
2022-09-27T06:16:56.667Z,9.63
2022-09-27T06:19:27.639Z,9.59
2022-09-27T06:21:56.220Z,9.58
2022-09-27T06:24:26.063Z,9.56
2022-09-27T06:26:53.552Z,9.60
2022-09-27T06:29:35.790Z,9.72
2022-09-27T06:32:06.471Z,9.79
2022-09-27T06:34:41.911Z,9.84
2022-09-27T06:37:09.452Z,9.96
2022-09-27T06:39:37.329Z,10.08
2022-09-27T06:42:24.750Z,10.17
2022-09-27T06:44:58.363Z,10.16
2022-09-27T06:47:46.849Z,10.20
2022-09-27T06:50:38.753Z,10.31
2022-09-27T06:53:07.740Z,10.36
2022-09-27T06:55:35.219Z,10.55
2022-09-27T06:58:21.659Z,10.64
2022-09-27T07:01:11.570Z,10.79
2022-09-27T07:03:59.000Z,10.87
2022-09-27T07:06:43.006Z,10.95
2022-09-27T07:09:33.792Z,11.14
2022-09-27T07:12:02.329Z,11.23
2022-09-27T07:14:30.539Z,11.31
2022-09-27T07:16:57.826Z,11.42
2022-09-27T07:19:28.550Z,11.49
2022-09-27T07:21:56.622Z,11.49
2022-09-27T07:24:24.383Z,11.54
2022-09-27T07:26:51.830Z,11.68
2022-09-27T07:29:21.687Z,11.83
2022-09-27T07:31:52.519Z,11.84
2022-09-27T07:34:19.830Z,11.88
2022-09-27T07:36:48.451Z,11.80
2022-09-27T07:39:16.160Z,11.84
2022-09-27T07:41:44.555Z,11.90
2022-09-27T07:44:16.365Z,12.05
2022-09-27T07:47:07.105Z,12.21
2022-09-27T07:49:53.360Z,12.04
2022-09-27T07:52:41.697Z,11.81
2022-09-27T07:55:28.981Z,11.89
2022-09-27T07:58:09.403Z,12.14
2022-09-27T08:00:38.347Z,12.26
2022-09-27T08:03:07.038Z,12.39
2022-09-27T08:05:36.354Z,12.38
2022-09-27T08:08:05.676Z,12.10
2022-09-27T08:10:34.730Z,11.85
2022-09-27T08:13:04.048Z,11.82
2022-09-27T08:15:32.244Z,11.81
2022-09-27T08:17:59.605Z,11.78
2022-09-27T08:20:49.554Z,11.88
2022-09-27T08:23:31.105Z,12.19
2022-09-27T08:26:24.802Z,12.39
2022-09-27T08:29:01.105Z,12.39
2022-09-27T08:31:31.206Z,12.26
2022-09-27T08:33:59.356Z,11.96
2022-09-27T08:36:27.205Z,11.72
2022-09-27T08:38:59.176Z,11.67
2022-09-27T08:41:38.952Z,11.70
2022-09-27T08:44:14.718Z,11.59
2022-09-27T08:47:05.833Z,11.38
2022-09-27T08:49:38.279Z,11.30
2022-09-27T08:52:12.822Z,11.21
2022-09-27T08:54:41.860Z,11.19
2022-09-27T08:57:12.806Z,11.26
2022-09-27T08:59:43.143Z,11.37
2022-09-27T09:02:18.110Z,11.49
2022-09-27T09:04:51.380Z,11.54
2022-09-27T09:07:29.190Z,11.54
2022-09-27T09:10:03.796Z,11.50
2022-09-27T09:12:49.360Z,11.57
2022-09-27T09:15:54.400Z,11.63
2022-09-27T09:18:37.585Z,11.92
2022-09-27T09:21:20.551Z,12.04
2022-09-27T09:24:08.787Z,12.12
2022-09-27T09:26:48.075Z,12.30
2022-09-27T09:29:29.045Z,12.58
2022-09-27T09:32:06.325Z,12.57
2022-09-27T09:34:40.291Z,12.67
2022-09-27T09:37:17.360Z,12.93
2022-09-27T09:39:49.123Z,13.32
2022-09-27T09:42:25.093Z,13.58
2022-09-27T09:44:58.255Z,13.74
2022-09-27T09:47:35.796Z,14.09
2022-09-27T09:50:07.097Z,14.02
2022-09-27T09:52:42.666Z,13.88
2022-09-27T09:55:19.427Z,13.71
2022-09-27T09:58:03.479Z,13.49
2022-09-27T10:00:40.861Z,13.27
2022-09-27T10:03:08.386Z,13.23
2022-09-27T10:05:36.069Z,13.32
2022-09-27T10:08:16.697Z,13.68
2022-09-27T10:10:47.978Z,13.79
2022-09-27T10:13:46.319Z,13.96
2022-09-27T10:16:17.506Z,13.97
2022-09-27T10:18:50.027Z,13.87
2022-09-27T10:21:22.207Z,13.57
2022-09-27T10:24:17.377Z,13.43
2022-09-27T10:27:05.905Z,13.60
2022-09-27T10:29:39.382Z,13.77
2022-09-27T10:32:23.693Z,13.69
2022-09-27T10:34:57.402Z,13.87
2022-09-27T10:37:25.075Z,13.95
2022-09-27T10:40:30.507Z,13.77
2022-09-27T10:42:59.809Z,13.58
2022-09-27T10:45:44.682Z,13.47
2022-09-27T10:48:20.933Z,13.33
2022-09-27T10:50:59.434Z,13.37
2022-09-27T10:53:45.697Z,13.54
2022-09-27T10:56:28.619Z,13.92
2022-09-27T10:58:57.065Z,14.38
2022-09-27T11:01:40.006Z,14.53
2022-09-27T11:04:23.608Z,14.01
2022-09-27T11:06:51.080Z,13.47
2022-09-27T11:09:24.410Z,13.05
2022-09-27T11:12:09.684Z,12.93
2022-09-27T11:14:38.529Z,12.89
2022-09-27T11:17:16.972Z,13.08
2022-09-27T11:20:14.809Z,13.26
2022-09-27T11:23:12.368Z,13.45
2022-09-27T11:25:46.723Z,13.79
2022-09-27T11:28:32.920Z,14.08
2022-09-27T11:31:16.359Z,14.36
2022-09-27T11:34:20.259Z,14.48
2022-09-27T11:37:01.254Z,14.35
2022-09-27T11:39:38.916Z,14.03
2022-09-27T11:42:24.396Z,13.71
2022-09-27T11:48:20.337Z,13.52
2022-09-27T11:51:05.218Z,13.35
2022-09-27T11:53:50.044Z,13.48
2022-09-27T11:56:31.407Z,13.53
2022-09-27T11:59:24.894Z,13.39
2022-09-27T12:01:57.331Z,13.32
2022-09-27T12:04:50.832Z,13.35
2022-09-27T12:07:33.903Z,13.39
2022-09-27T12:10:05.264Z,13.47
2022-09-27T12:12:39.501Z,13.51
2022-09-27T12:15:14.708Z,13.54
2022-09-27T12:17:45.900Z,13.58
2022-09-27T12:20:20.731Z,13.37
2022-09-27T12:22:59.866Z,13.20
2022-09-27T12:25:42.934Z,12.82
2022-09-27T12:28:25.949Z,12.71
2022-09-27T12:31:27.612Z,12.67
2022-09-27T12:33:57.905Z,12.69
2022-09-27T12:36:34.901Z,12.63
2022-09-27T12:39:13.461Z,12.53
2022-09-27T12:41:49.309Z,12.46
2022-09-27T12:44:28.457Z,12.42
2022-09-27T12:47:05.190Z,12.42
2022-09-27T12:49:43.220Z,12.36
2022-09-27T12:52:14.863Z,12.26
2022-09-27T12:55:04.280Z,12.25
2022-09-27T12:57:46.031Z,12.22
2022-09-27T13:00:21.269Z,12.25
2022-09-27T13:03:26.158Z,12.14
2022-09-27T13:06:22.231Z,12.01
2022-09-27T13:09:07.854Z,11.96
2022-09-27T13:11:41.530Z,11.91
2022-09-27T13:14:18.254Z,11.81
2022-09-27T13:16:47.172Z,11.83
2022-09-27T13:19:43.250Z,11.80
2022-09-27T13:22:38.109Z,11.73
2022-09-27T13:25:55.439Z,11.65
2022-09-27T13:29:02.230Z,11.63
2022-09-27T13:32:23.387Z,11.61
2022-09-27T13:35:19.112Z,11.62
2022-09-27T13:37:55.563Z,11.59
2022-09-27T13:40:57.034Z,11.48
2022-09-27T13:43:42.114Z,11.35
2022-09-27T13:46:53.339Z,11.21
2022-09-27T13:49:29.287Z,11.25
2022-09-27T13:52:20.974Z,11.36
2022-09-27T13:54:59.347Z,11.47
2022-09-27T13:57:52.126Z,11.44
2022-09-27T14:00:24.833Z,11.41
2022-09-27T14:03:03.423Z,11.52
2022-09-27T14:05:36.618Z,11.53
2022-09-27T14:08:07.442Z,11.58
2022-09-27T14:10:36.023Z,11.61
2022-09-27T14:13:06.285Z,11.66
2022-09-27T14:15:39.717Z,11.70
2022-09-27T14:18:12.055Z,11.64
2022-09-27T14:20:42.676Z,11.61
2022-09-27T14:23:45.159Z,11.50
2022-09-27T14:26:23.117Z,11.42
2022-09-27T14:28:51.068Z,11.43
2022-09-27T14:31:32.083Z,11.37
2022-09-27T14:34:13.441Z,11.25
2022-09-27T14:37:04.534Z,11.30
2022-09-27T14:39:38.608Z,11.27
2022-09-27T14:42:29.164Z,11.23
2022-09-27T14:45:01.802Z,11.15
2022-09-27T14:47:30.354Z,11.13
2022-09-27T14:50:01.493Z,11.05
2022-09-27T14:52:33.184Z,11.03
2022-09-27T14:55:03.468Z,11.04
2022-09-27T14:57:34.178Z,11.03
2022-09-27T15:00:09.894Z,11.04
2022-09-27T15:02:38.409Z,11.03
2022-09-27T15:05:14.630Z,10.98
2022-09-27T15:07:42.717Z,10.95
2022-09-27T15:10:17.124Z,10.99
2022-09-27T15:12:50.197Z,10.99
2022-09-27T15:15:21.782Z,10.95
2022-09-27T15:17:49.679Z,10.94
2022-09-27T15:20:25.178Z,10.94
2022-09-27T15:22:53.494Z,10.91
2022-09-27T15:25:25.206Z,10.91
2022-09-27T15:27:54.782Z,10.91
2022-09-27T15:30:29.924Z,10.94
2022-09-27T15:32:58.001Z,10.87
2022-09-27T15:35:30.981Z,10.76
2022-09-27T15:38:26.817Z,10.72
2022-09-27T15:40:59.486Z,10.74
2022-09-27T15:43:32.463Z,10.71
2022-09-27T15:46:03.744Z,10.70
2022-09-27T15:48:32.754Z,10.66
2022-09-27T15:51:03.183Z,10.63
2022-09-27T15:53:44.403Z,10.61
2022-09-27T15:56:15.026Z,10.56
2022-09-27T15:58:43.850Z,10.55
2022-09-27T16:01:29.327Z,10.48
2022-09-27T16:03:58.821Z,10.47
2022-09-27T16:06:28.988Z,10.46
2022-09-27T16:08:56.178Z,10.43
2022-09-27T16:11:23.555Z,10.43
2022-09-27T16:13:53.062Z,10.39
2022-09-27T16:16:22.172Z,10.43
2022-09-27T16:18:49.814Z,10.33
2022-09-27T16:21:18.164Z,10.30
2022-09-27T16:23:46.869Z,10.25
2022-09-27T16:26:14.138Z,10.23
2022-09-27T16:28:41.547Z,10.24
2022-09-27T16:31:11.454Z,10.21
2022-09-27T16:33:39.015Z,10.19
2022-09-27T16:36:14.347Z,10.11
2022-09-27T16:38:42.701Z,10.17
2022-09-27T16:41:11.555Z,10.13
2022-09-27T16:43:38.873Z,10.16
2022-09-27T16:46:09.350Z,10.11
2022-09-27T16:48:37.010Z,10.04
2022-09-27T16:51:24.718Z,10.04
2022-09-27T16:53:52.100Z,10.03
2022-09-27T16:56:20.994Z,9.99
2022-09-27T16:58:48.165Z,10.03
2022-09-27T17:01:18.261Z,9.97
2022-09-27T17:03:51.779Z,9.90
2022-09-27T17:06:22.362Z,9.88
2022-09-27T17:08:50.356Z,9.86
2022-09-27T17:11:20.581Z,9.86
2022-09-27T17:13:49.436Z,9.82
2022-09-27T17:16:17.177Z,9.79
2022-09-27T17:18:45.352Z,9.80
2022-09-27T17:21:12.674Z,9.81
2022-09-27T17:23:39.936Z,9.81
2022-09-27T17:26:08.863Z,9.80
2022-09-27T17:28:37.598Z,9.79
2022-09-27T17:31:08.953Z,9.74
2022-09-27T17:33:41.932Z,9.67
2022-09-27T17:36:10.126Z,9.60
2022-09-27T17:38:37.998Z,9.59
2022-09-27T17:41:07.123Z,9.60
2022-09-27T17:43:35.787Z,9.63
2022-09-27T17:46:06.775Z,9.56
2022-09-27T17:48:53.737Z,9.59
2022-09-27T17:51:21.651Z,9.48
2022-09-27T17:53:49.453Z,9.59
2022-09-27T17:56:17.253Z,9.52
2022-09-27T17:58:48.249Z,9.51
2022-09-27T18:01:18.619Z,9.48
2022-09-27T18:03:46.741Z,9.46
2022-09-27T18:06:16.470Z,9.43
2022-09-27T18:08:43.702Z,9.38
2022-09-27T18:11:12.717Z,9.44
2022-09-27T18:13:40.950Z,9.40
2022-09-27T18:16:09.966Z,9.41
2022-09-27T18:18:40.655Z,9.36
2022-09-27T18:21:14.094Z,9.40
2022-09-27T18:23:42.424Z,9.40
2022-09-27T18:26:10.180Z,9.41
2022-09-27T18:28:39.337Z,9.46
2022-09-27T18:31:19.291Z,9.48
2022-09-27T18:33:48.579Z,9.50
2022-09-27T18:36:18.852Z,9.54
2022-09-27T18:38:47.167Z,9.56
2022-09-27T18:41:16.247Z,9.57
2022-09-27T18:43:44.878Z,9.53
2022-09-27T18:46:34.663Z,9.54
2022-09-27T18:49:05.723Z,9.55
2022-09-27T18:51:34.222Z,9.56
2022-09-27T18:54:03.843Z,9.54
2022-09-27T18:56:31.889Z,9.57
2022-09-27T18:58:59.127Z,9.59
2022-09-27T19:01:26.735Z,9.59
2022-09-27T19:03:54.013Z,9.58
2022-09-27T19:06:23.716Z,9.60
2022-09-27T19:08:55.248Z,9.54
2022-09-27T19:11:22.775Z,9.54
2022-09-27T19:13:52.493Z,9.45
2022-09-27T19:16:23.584Z,9.51
2022-09-27T19:18:51.534Z,9.42
2022-09-27T19:21:20.822Z,9.53
2022-09-27T19:23:50.041Z,9.49
2022-09-27T19:26:19.737Z,9.44
2022-09-27T19:28:47.821Z,9.39
2022-09-27T19:31:16.477Z,9.36
2022-09-27T19:33:44.443Z,9.39
2022-09-27T19:36:13.321Z,9.40
2022-09-27T19:38:41.113Z,9.34
2022-09-27T19:41:11.290Z,9.28
2022-09-27T19:43:38.591Z,9.29
2022-09-27T19:46:07.197Z,9.32
2022-09-27T19:48:36.777Z,9.27
2022-09-27T19:51:05.190Z,9.17
2022-09-27T19:53:33.525Z,9.29
2022-09-27T19:56:01.729Z,9.27
2022-09-27T19:58:31.731Z,9.24
2022-09-27T20:01:01.158Z,9.32
2022-09-27T20:03:29.290Z,9.33
2022-09-27T20:05:58.407Z,9.36
2022-09-27T20:08:26.753Z,9.28
2022-09-27T20:10:55.446Z,9.24
2022-09-27T20:13:26.554Z,9.22
2022-09-27T20:16:01.986Z,9.18
2022-09-27T20:18:29.625Z,9.13
2022-09-27T20:21:00.284Z,9.18
2022-09-27T20:23:28.221Z,9.22
2022-09-27T20:26:00.772Z,9.25
2022-09-27T20:28:28.281Z,9.26
2022-09-27T20:31:00.689Z,9.27
2022-09-27T20:33:46.930Z,9.23
2022-09-27T20:36:15.879Z,9.09
2022-09-27T20:38:44.621Z,9.17
2022-09-27T20:41:14.340Z,9.19
2022-09-27T20:43:41.724Z,9.22
2022-09-27T20:46:12.730Z,9.18
2022-09-27T20:48:40.261Z,9.21
2022-09-27T20:51:08.414Z,9.20
2022-09-27T20:53:35.832Z,9.21
2022-09-27T20:56:03.197Z,9.19
2022-09-27T20:58:31.162Z,9.19
2022-09-27T21:01:05.735Z,9.14
2022-09-27T21:03:34.772Z,9.17
2022-09-27T21:06:02.542Z,9.18
2022-09-27T21:08:31.365Z,9.17
2022-09-27T21:11:04.840Z,9.17
2022-09-27T21:13:32.134Z,9.16
2022-09-27T21:16:04.271Z,9.13
2022-09-27T21:18:31.895Z,9.14
2022-09-27T21:21:02.257Z,9.13
2022-09-27T21:23:30.209Z,9.13
2022-09-27T21:26:04.581Z,9.12
2022-09-27T21:28:33.715Z,9.08
2022-09-27T21:31:06.028Z,9.00
2022-09-27T21:33:33.537Z,9.16
2022-09-27T21:36:03.147Z,9.16
2022-09-27T21:38:31.493Z,9.09
2022-09-27T21:41:03.267Z,9.12
2022-09-27T21:43:32.279Z,9.07
2022-09-27T21:46:03.801Z,9.09
2022-09-27T21:48:31.995Z,9.14
2022-09-27T21:51:07.061Z,9.17
2022-09-27T21:53:35.470Z,9.18
2022-09-27T21:56:03.746Z,9.17
2022-09-27T21:58:33.403Z,9.17
2022-09-27T22:01:07.277Z,9.16
2022-09-27T22:03:35.531Z,9.13
2022-09-27T22:06:03.046Z,9.08
2022-09-27T22:08:32.265Z,9.06
2022-09-27T22:10:59.670Z,9.06
2022-09-27T22:13:27.535Z,9.06
2022-09-27T22:15:55.350Z,9.08
2022-09-27T22:18:23.094Z,9.07
2022-09-27T22:20:50.512Z,9.03
2022-09-27T22:23:17.782Z,8.99
2022-09-27T22:25:46.406Z,8.99
2022-09-27T22:28:13.948Z,9.01
2022-09-27T22:30:41.206Z,9.03
2022-09-27T22:33:08.512Z,9.03
2022-09-27T22:35:35.743Z,9.00
2022-09-27T22:38:02.927Z,8.97
2022-09-27T22:40:30.652Z,8.94
2022-09-27T22:42:59.605Z,8.88
2022-09-27T22:45:26.764Z,8.88
2022-09-27T22:47:54.067Z,8.83
2022-09-27T22:50:21.291Z,8.83
2022-09-27T22:52:48.426Z,8.82
2022-09-27T22:55:15.850Z,8.82
2022-09-27T22:57:43.632Z,8.84
2022-09-27T23:00:13.788Z,8.85
2022-09-27T23:02:41.017Z,8.85
2022-09-27T23:05:09.527Z,8.83
2022-09-27T23:07:36.898Z,8.78
2022-09-27T23:10:04.371Z,8.79
2022-09-27T23:12:31.570Z,8.80
2022-09-27T23:14:58.859Z,8.74
2022-09-27T23:17:27.616Z,8.74
2022-09-27T23:19:54.806Z,8.69
2022-09-27T23:22:21.993Z,8.65
2022-09-27T23:24:49.255Z,8.65
2022-09-27T23:27:35.147Z,8.63
2022-09-27T23:30:02.769Z,8.56
2022-09-27T23:32:32.219Z,8.50
2022-09-27T23:34:59.549Z,8.40
2022-09-27T23:37:26.827Z,8.42
2022-09-27T23:39:54.017Z,8.39
2022-09-27T23:42:21.401Z,8.37
2022-09-27T23:44:48.783Z,8.35
2022-09-27T23:47:16.051Z,8.32
2022-09-27T23:49:44.799Z,8.31
2022-09-27T23:52:12.153Z,8.31
2022-09-27T23:54:39.576Z,8.24
2022-09-27T23:57:06.819Z,8.20
2022-09-27T23:59:33.984Z,8.16
